createdAt,value
2019-05-07T00:02:17.496Z,13.47
2019-05-07T00:04:44.963Z,14.33
2019-05-07T00:07:13.054Z,14.37
2019-05-07T00:09:39.927Z,13.77
2019-05-07T00:12:07.355Z,14.52
2019-05-07T00:14:34.906Z,17.15
2019-05-07T00:17:04.425Z,13.80
2019-05-07T00:19:32.393Z,13.73
2019-05-07T00:21:58.378Z,15.33
2019-05-07T00:24:25.972Z,14.47
2019-05-07T00:26:53.463Z,14.77
2019-05-07T00:29:22.388Z,14.82
2019-05-07T00:31:48.367Z,14.60
2019-05-07T00:34:15.823Z,13.73
2019-05-07T00:36:44.612Z,13.97
2019-05-07T00:39:12.405Z,13.55
2019-05-07T00:41:42.877Z,13.60
2019-05-07T00:44:10.391Z,15.40
2019-05-07T00:46:37.846Z,13.70
2019-05-07T00:49:05.278Z,14.52
2019-05-07T00:51:33.707Z,14.60
2019-05-07T00:54:02.841Z,14.35
2019-05-07T00:56:29.165Z,13.47
2019-05-07T00:58:56.631Z,14.00
2019-05-07T01:01:24.063Z,14.87
2019-05-07T01:03:53.334Z,13.67
2019-05-07T01:06:18.974Z,15.43
2019-05-07T01:08:46.439Z,17.00
2019-05-07T01:11:13.871Z,14.50
2019-05-07T01:13:43.132Z,14.03
2019-05-07T01:16:08.792Z,18.17
2019-05-07T01:18:36.265Z,13.83
2019-05-07T01:21:03.706Z,14.50
2019-05-07T01:23:32.324Z,16.00
2019-05-07T01:25:59.710Z,12.67
2019-05-07T01:28:27.205Z,14.90
2019-05-07T01:30:54.658Z,13.80
2019-05-07T01:33:22.765Z,14.23
2019-05-07T01:35:55.664Z,14.63
2019-05-07T01:38:23.092Z,15.00
2019-05-07T01:40:52.082Z,15.63
2019-05-07T01:43:17.980Z,21.43
2019-05-07T01:45:49.480Z,14.75
2019-05-07T01:48:12.875Z,13.33
2019-05-07T01:50:42.798Z,13.90
2019-05-07T01:53:07.830Z,16.27
2019-05-07T01:55:35.256Z,13.93
2019-05-07T01:58:04.738Z,14.93
2019-05-07T02:00:30.224Z,17.80
2019-05-07T02:02:59.501Z,15.00
2019-05-07T02:05:35.816Z,14.07
2019-05-07T02:08:04.200Z,14.60
2019-05-07T02:10:35.127Z,14.73
2019-05-07T02:13:03.028Z,14.05
2019-05-07T02:15:32.292Z,13.47
2019-05-07T02:17:58.227Z,13.90
2019-05-07T02:20:25.712Z,13.77
2019-05-07T02:22:53.363Z,14.48
2019-05-07T02:25:22.122Z,14.40
2019-05-07T02:27:48.181Z,12.48
2019-05-07T02:30:15.644Z,14.30
2019-05-07T02:32:43.572Z,16.87
2019-05-07T02:35:13.614Z,17.40
2019-05-07T02:37:48.444Z,18.13
2019-05-07T02:40:09.414Z,17.75
2019-05-07T02:42:36.866Z,16.98
2019-05-07T02:45:18.155Z,16.50
2019-05-07T02:47:45.627Z,18.30
2019-05-07T02:50:27.963Z,16.95
2019-05-07T02:52:57.799Z,18.47
2019-05-07T02:55:33.441Z,19.90
2019-05-07T02:57:58.334Z,17.77
2019-05-07T03:00:25.778Z,15.30
2019-05-07T03:02:53.474Z,16.83
2019-05-07T03:05:22.948Z,17.17
2019-05-07T03:07:49.347Z,18.97
2019-05-07T03:10:16.891Z,19.70
2019-05-07T03:12:44.334Z,17.75
2019-05-07T03:15:13.235Z,17.73
2019-05-07T03:17:39.285Z,18.40
2019-05-07T03:20:06.750Z,22.23
2019-05-07T03:22:34.498Z,19.33
2019-05-07T03:25:05.530Z,17.70
2019-05-07T03:27:34.052Z,18.43
2019-05-07T03:30:04.208Z,17.80
2019-05-07T03:32:29.841Z,16.67
2019-05-07T03:34:59.010Z,18.70
2019-05-07T03:37:26.460Z,21.60
2019-05-07T03:39:53.989Z,18.33
2019-05-07T03:42:23.626Z,19.77
2019-05-07T03:44:48.945Z,19.00
2019-05-07T03:47:16.779Z,18.20
2019-05-07T03:49:44.226Z,19.93
2019-05-07T03:52:13.694Z,22.23
2019-05-07T03:54:39.120Z,18.73
2019-05-07T03:57:11.419Z,17.77
2019-05-07T03:59:34.499Z,17.63
2019-05-07T04:02:03.317Z,17.13
2019-05-07T04:04:29.064Z,20.17
2019-05-07T04:06:58.741Z,17.13
2019-05-07T04:09:26.232Z,17.67
2019-05-07T04:11:53.670Z,18.10
2019-05-07T04:14:23.174Z,18.37
2019-05-07T04:16:48.609Z,18.93
2019-05-07T04:19:16.137Z,19.37
2019-05-07T04:21:43.646Z,17.58
2019-05-07T04:24:25.942Z,20.67
2019-05-07T04:26:59.025Z,18.90
2019-05-07T04:29:26.511Z,17.40
2019-05-07T04:31:53.961Z,19.67
2019-05-07T04:34:23.769Z,17.80
2019-05-07T04:36:53.225Z,18.35
2019-05-07T04:39:17.851Z,20.73
2019-05-07T04:41:45.294Z,17.43
2019-05-07T04:44:14.090Z,18.58
2019-05-07T04:46:43.764Z,18.70
2019-05-07T04:49:07.695Z,17.47
2019-05-07T04:51:35.157Z,17.08
2019-05-07T04:54:03.613Z,18.17
2019-05-07T04:56:30.091Z,16.40
2019-05-07T04:58:57.584Z,15.50
2019-05-07T05:01:25.031Z,17.83
2019-05-07T05:03:54.105Z,16.65
2019-05-07T05:06:20.258Z,17.33
2019-05-07T05:08:47.718Z,16.03
2019-05-07T05:11:15.194Z,16.25
2019-05-07T05:13:44.468Z,18.92
2019-05-07T05:16:15.780Z,15.90
2019-05-07T05:21:16.804Z,16.15
2019-05-07T05:23:45.115Z,16.43
2019-05-07T05:26:12.647Z,19.92
2019-05-07T05:28:41.887Z,17.13
2019-05-07T05:31:07.505Z,16.70
2019-05-07T05:33:34.964Z,18.37
2019-05-07T05:36:03.071Z,17.07
2019-05-07T05:38:29.857Z,19.17
2019-05-07T05:40:57.292Z,17.77
2019-05-07T05:43:26.025Z,20.80
2019-05-07T05:45:54.256Z,19.37
2019-05-07T05:48:22.409Z,17.08
2019-05-07T05:50:49.206Z,17.73
2019-05-07T05:53:27.447Z,19.40
2019-05-07T05:55:54.921Z,16.83
2019-05-07T06:01:14.365Z,17.10
2019-05-07T06:04:03.046Z,18.23
2019-05-07T06:06:45.005Z,18.87
2019-05-07T06:09:18.866Z,18.97
2019-05-07T06:11:46.301Z,20.00
2019-05-07T06:14:18.597Z,16.60
2019-05-07T06:16:46.287Z,16.80
2019-05-07T06:19:16.191Z,17.60
2019-05-07T06:21:49.174Z,15.90
2019-05-07T06:24:18.458Z,18.40
2019-05-07T06:26:46.069Z,16.40
2019-05-07T06:29:13.549Z,17.87
2019-05-07T06:31:42.222Z,17.33
2019-05-07T06:34:08.809Z,19.48
2019-05-07T06:36:36.269Z,17.73
2019-05-07T06:39:22.150Z,18.42
2019-05-07T06:41:54.291Z,18.48
2019-05-07T06:44:22.377Z,16.80
2019-05-07T06:46:49.383Z,16.95
2019-05-07T06:49:16.803Z,18.77
2019-05-07T06:51:44.248Z,17.93
2019-05-07T06:54:13.014Z,17.63
2019-05-07T06:56:39.302Z,17.50
2019-05-07T06:59:06.779Z,15.50
2019-05-07T07:01:37.619Z,17.90
2019-05-07T07:04:06.870Z,15.83
2019-05-07T07:06:39.882Z,15.77
2019-05-07T07:09:09.157Z,17.33
2019-05-07T07:11:36.659Z,16.10
2019-05-07T07:14:04.114Z,15.37
2019-05-07T07:16:32.599Z,15.60
2019-05-07T07:18:59.112Z,17.67
2019-05-07T07:21:26.687Z,18.27
2019-05-07T07:23:54.146Z,17.40
2019-05-07T07:26:22.201Z,14.77
2019-05-07T07:28:49.105Z,14.90
2019-05-07T07:31:26.471Z,17.93
2019-05-07T07:33:53.915Z,16.10
2019-05-07T07:36:22.565Z,13.57
2019-05-07T07:38:48.929Z,11.75
2019-05-07T07:41:32.752Z,15.53
2019-05-07T07:44:02.082Z,10.33
2019-05-07T07:46:28.403Z,12.07
2019-05-07T07:49:06.743Z,14.37
2019-05-07T07:51:37.239Z,13.77
2019-05-07T07:53:52.020Z,15.13
2019-05-07T07:56:23.841Z,13.13
2019-05-07T07:58:52.655Z,14.90
2019-05-07T08:01:37.960Z,11.20
2019-05-07T08:04:05.413Z,10.60
2019-05-07T08:06:32.835Z,9.32
2019-05-07T08:09:02.141Z,11.37
2019-05-07T08:11:27.743Z,11.23
2019-05-07T08:13:55.234Z,11.00
2019-05-07T08:16:22.665Z,11.75
2019-05-07T08:18:52.158Z,10.98
2019-05-07T08:21:17.640Z,11.50
2019-05-07T08:23:45.135Z,13.67
2019-05-07T08:26:12.785Z,12.50
2019-05-07T08:28:41.918Z,12.37
2019-05-07T08:31:07.589Z,11.87
2019-05-07T08:33:35.490Z,11.37
2019-05-07T08:36:11.977Z,10.80
2019-05-07T08:38:43.698Z,16.42
2019-05-07T08:41:12.031Z,11.73
2019-05-07T08:43:39.155Z,11.93
2019-05-07T08:46:12.297Z,11.43
2019-05-07T08:48:39.791Z,11.20
2019-05-07T08:51:07.245Z,10.63
2019-05-07T08:53:34.736Z,10.00
2019-05-07T08:56:03.215Z,8.90
2019-05-07T08:58:31.592Z,8.93
2019-05-07T09:00:57.351Z,9.00
2019-05-07T09:03:32.323Z,8.55
2019-05-07T09:05:57.986Z,7.90
2019-05-07T09:08:25.462Z,9.13
2019-05-07T09:10:52.952Z,9.53
2019-05-07T09:13:22.545Z,9.83
2019-05-07T09:15:47.884Z,8.60
2019-05-07T09:18:15.337Z,9.23
2019-05-07T09:20:42.898Z,10.10
2019-05-07T09:23:12.072Z,9.40
2019-05-07T09:25:37.963Z,8.73
2019-05-07T09:28:05.456Z,8.07
2019-05-07T09:30:38.491Z,8.90
2019-05-07T09:33:07.429Z,9.00
2019-05-07T09:35:34.938Z,7.67
2019-05-07T09:38:03.175Z,6.60
2019-05-07T09:40:31.889Z,6.45
2019-05-07T09:42:57.361Z,6.70
2019-05-07T09:45:24.810Z,6.72
2019-05-07T09:47:52.369Z,7.07
2019-05-07T09:50:22.021Z,6.93
2019-05-07T09:52:47.735Z,7.40
2019-05-07T09:55:17.550Z,8.00
2019-05-07T09:57:42.700Z,6.97
2019-05-07T10:00:12.144Z,7.03
2019-05-07T10:02:37.563Z,8.60
2019-05-07T10:05:05.007Z,9.17
2019-05-07T10:07:32.670Z,9.30
2019-05-07T10:09:59.931Z,9.40
2019-05-07T10:12:32.912Z,8.60
2019-05-07T10:14:58.697Z,7.70
2019-05-07T10:17:27.092Z,10.97
2019-05-07T10:19:55.488Z,8.10
2019-05-07T10:22:23.005Z,9.00
2019-05-07T10:24:52.210Z,8.33
2019-05-07T10:27:18.977Z,10.07
2019-05-07T10:29:46.425Z,8.97
2019-05-07T10:32:13.867Z,9.90
2019-05-07T10:34:42.238Z,10.47
2019-05-07T10:37:08.799Z,9.13
2019-05-07T10:39:36.278Z,9.57
2019-05-07T10:42:03.725Z,9.50
2019-05-07T10:44:32.125Z,9.77
2019-05-07T10:47:04.925Z,8.77
2019-05-07T10:49:36.910Z,8.90
2019-05-07T10:52:04.363Z,8.07
2019-05-07T10:54:31.811Z,10.40
2019-05-07T10:56:59.270Z,8.43
2019-05-07T10:59:26.721Z,10.93
2019-05-07T11:01:54.618Z,8.98
2019-05-07T11:04:22.115Z,9.70
2019-05-07T11:06:49.564Z,8.83
2019-05-07T11:09:17.061Z,9.87
2019-05-07T11:11:44.514Z,10.27
2019-05-07T11:14:12.301Z,9.00
2019-05-07T11:16:52.051Z,10.00
2019-05-07T11:19:19.016Z,9.00
2019-05-07T11:21:45.271Z,9.27
2019-05-07T11:24:12.813Z,9.00
2019-05-07T11:26:42.005Z,14.27
2019-05-07T11:29:07.744Z,13.73
2019-05-07T11:31:35.195Z,11.15
2019-05-07T11:34:03.139Z,12.27
2019-05-07T11:36:31.954Z,12.50
2019-05-07T11:38:58.087Z,16.50
2019-05-07T11:41:29.313Z,14.53
2019-05-07T11:43:56.783Z,14.60
2019-05-07T11:46:24.233Z,14.17
2019-05-07T11:48:51.719Z,14.23
2019-05-07T11:51:38.084Z,13.23
2019-05-07T11:54:07.453Z,14.85
2019-05-07T11:56:34.871Z,13.87
2019-05-07T11:59:02.821Z,13.13
2019-05-07T12:01:41.565Z,14.27
2019-05-07T12:03:57.603Z,13.33
2019-05-07T12:06:25.115Z,15.18
2019-05-07T12:08:54.091Z,12.55
2019-05-07T12:11:21.913Z,12.33
2019-05-07T12:13:49.324Z,12.80
2019-05-07T12:16:16.795Z,13.40
2019-05-07T12:18:44.253Z,11.20
2019-05-07T12:21:20.214Z,12.37
2019-05-07T12:23:39.253Z,11.43
2019-05-07T12:26:06.724Z,10.90
2019-05-07T12:28:34.199Z,10.55
2019-05-07T12:31:02.055Z,11.52
2019-05-07T12:33:44.399Z,11.57
2019-05-07T12:36:12.571Z,12.00
2019-05-07T12:38:39.362Z,9.87
2019-05-07T12:41:12.847Z,9.77
2019-05-07T12:43:39.846Z,9.50
2019-05-07T12:46:07.293Z,9.15
2019-05-07T12:48:34.710Z,9.67
2019-05-07T12:51:02.155Z,8.65
2019-05-07T12:53:35.138Z,10.27
2019-05-07T12:56:02.598Z,10.20
2019-05-07T12:58:32.137Z,10.60
2019-05-07T13:00:58.993Z,10.50
2019-05-07T13:03:32.414Z,8.37
2019-05-07T13:05:59.876Z,10.02
2019-05-07T13:08:27.327Z,9.83
2019-05-07T13:10:54.778Z,10.50
2019-05-07T13:13:22.234Z,9.50
2019-05-07T13:15:51.664Z,9.90
2019-05-07T13:18:17.183Z,10.00
2019-05-07T13:20:44.622Z,10.23
2019-05-07T13:23:12.089Z,9.40
2019-05-07T13:25:39.503Z,9.20
2019-05-07T13:28:06.970Z,9.97
2019-05-07T13:30:34.389Z,7.55
2019-05-07T13:33:02.076Z,9.80
2019-05-07T13:35:29.321Z,10.40
2019-05-07T13:38:11.818Z,10.33
2019-05-07T13:40:57.006Z,9.93
2019-05-07T13:43:26.903Z,10.90
2019-05-07T13:46:12.132Z,14.27
2019-05-07T13:48:38.648Z,10.52
2019-05-07T13:51:06.112Z,10.57
2019-05-07T13:53:33.638Z,10.40
2019-05-07T13:56:02.334Z,11.87
2019-05-07T13:58:28.641Z,10.65
2019-05-07T14:01:08.827Z,9.40
2019-05-07T14:03:36.287Z,8.37
2019-05-07T14:06:04.561Z,9.37
2019-05-07T14:08:32.062Z,9.00
2019-05-07T14:10:58.671Z,10.33
2019-05-07T14:13:26.206Z,10.88
2019-05-07T14:16:12.088Z,10.13
2019-05-07T14:18:37.923Z,10.85
2019-05-07T14:21:05.496Z,10.13
2019-05-07T14:23:33.077Z,9.40
2019-05-07T14:26:01.961Z,9.13
2019-05-07T14:28:27.976Z,8.88
2019-05-07T14:30:55.459Z,8.90
2019-05-07T14:33:28.495Z,10.40
2019-05-07T14:35:58.454Z,9.67
2019-05-07T14:38:25.929Z,10.14
2019-05-07T14:40:53.377Z,10.43
2019-05-07T14:43:22.011Z,7.27
2019-05-07T14:45:49.581Z,9.20
2019-05-07T14:48:17.072Z,9.33
2019-05-07T14:50:44.985Z,8.57
2019-05-07T14:53:12.510Z,8.40
2019-05-07T14:55:41.798Z,8.47
2019-05-07T14:58:07.511Z,7.55
2019-05-07T15:00:35.380Z,6.10
2019-05-07T15:03:02.454Z,8.27
2019-05-07T15:05:29.881Z,7.67
2019-05-07T15:08:08.336Z,8.30
2019-05-07T15:10:24.825Z,7.83
2019-05-07T15:15:27.954Z,7.10
2019-05-07T15:17:56.843Z,7.50
2019-05-07T15:20:24.364Z,8.53
2019-05-07T15:22:53.798Z,8.47
2019-05-07T15:25:22.725Z,8.97
2019-05-07T15:27:49.655Z,9.13
2019-05-07T15:30:17.114Z,9.53
2019-05-07T15:32:44.535Z,8.07
2019-05-07T15:35:12.598Z,7.60
2019-05-07T15:37:39.512Z,7.70
2019-05-07T15:40:06.951Z,8.77
2019-05-07T15:42:34.402Z,9.70
2019-05-07T15:45:02.262Z,11.30
2019-05-07T15:47:31.663Z,9.13
2019-05-07T15:49:57.581Z,9.60
2019-05-07T15:52:32.593Z,9.68
2019-05-07T15:54:58.114Z,9.27
2019-05-07T15:57:26.062Z,9.50
2019-05-07T15:59:53.479Z,8.40
2019-05-07T16:02:24.811Z,8.57
2019-05-07T16:04:52.293Z,8.77
2019-05-07T16:07:22.501Z,9.23
2019-05-07T16:09:47.908Z,9.37
2019-05-07T16:12:15.376Z,9.13
2019-05-07T16:14:42.878Z,10.30
2019-05-07T16:17:10.376Z,9.63
2019-05-07T16:19:37.814Z,9.73
2019-05-07T16:22:05.253Z,9.33
2019-05-07T16:24:32.698Z,9.80
2019-05-07T16:27:02.623Z,8.90
2019-05-07T16:29:27.593Z,8.68
2019-05-07T16:31:55.026Z,8.80
2019-05-07T16:34:24.590Z,7.90
2019-05-07T16:36:49.967Z,8.87
2019-05-07T16:39:17.411Z,7.90
2019-05-07T16:41:44.869Z,8.63
2019-05-07T16:44:12.488Z,8.07
2019-05-07T16:46:41.951Z,7.82
2019-05-07T16:49:07.219Z,8.75
2019-05-07T16:51:34.650Z,8.77
2019-05-07T16:54:03.416Z,10.18
2019-05-07T16:56:29.565Z,8.23
2019-05-07T16:58:57.901Z,8.88
2019-05-07T17:01:25.361Z,9.77
2019-05-07T17:03:56.331Z,7.97
2019-05-07T17:06:25.138Z,8.57
2019-05-07T17:09:04.324Z,8.82
2019-05-07T17:11:32.200Z,9.70
2019-05-07T17:13:59.261Z,9.83
2019-05-07T17:16:26.724Z,8.98
2019-05-07T17:18:54.148Z,9.70
2019-05-07T17:21:21.914Z,9.38
2019-05-07T17:23:49.354Z,10.50
2019-05-07T17:26:16.789Z,9.98
2019-05-07T17:28:44.251Z,9.73
2019-05-07T17:31:12.427Z,9.40
2019-05-07T17:33:39.136Z,11.40
2019-05-07T17:36:06.551Z,8.33
2019-05-07T17:38:34.029Z,10.00
2019-05-07T17:41:10.880Z,9.20
2019-05-07T17:43:28.964Z,9.97
2019-05-07T17:45:56.484Z,8.77
2019-05-07T17:48:23.921Z,8.73
2019-05-07T17:50:52.286Z,9.03
2019-05-07T17:53:19.758Z,10.77
2019-05-07T17:55:47.211Z,10.37
2019-05-07T17:58:16.066Z,9.97
2019-05-07T18:00:43.506Z,8.02
2019-05-07T18:03:13.261Z,10.17
2019-05-07T18:05:42.423Z,10.17
2019-05-07T18:08:08.224Z,8.30
2019-05-07T18:10:35.663Z,9.30
2019-05-07T18:13:03.114Z,8.17
2019-05-07T18:15:32.275Z,7.90
2019-05-07T18:18:02.859Z,8.17
2019-05-07T18:20:27.861Z,7.97
2019-05-07T18:22:55.323Z,7.77
2019-05-07T18:25:23.089Z,7.27
2019-05-07T18:27:52.558Z,7.50
2019-05-07T18:30:18.027Z,9.87
2019-05-07T18:32:47.246Z,6.90
2019-05-07T18:35:14.676Z,8.40
2019-05-07T18:37:47.807Z,7.50
2019-05-07T18:40:15.245Z,13.40
2019-05-07T18:42:42.686Z,8.57
2019-05-07T18:45:12.319Z,7.90
2019-05-07T18:47:37.640Z,7.17
2019-05-07T18:50:05.079Z,9.45
2019-05-07T18:52:32.538Z,7.68
2019-05-07T18:54:59.989Z,7.60
2019-05-07T18:57:27.543Z,7.37
2019-05-07T18:59:55.004Z,7.30
2019-05-07T19:02:22.648Z,8.80
2019-05-07T19:04:51.951Z,7.70
2019-05-07T19:07:17.325Z,7.50
2019-05-07T19:09:47.649Z,7.83
2019-05-07T19:12:13.049Z,7.70
2019-05-07T19:14:39.704Z,9.55
2019-05-07T19:17:07.167Z,7.70
2019-05-07T19:19:34.604Z,8.55
2019-05-07T19:22:02.231Z,8.03
2019-05-07T19:24:42.296Z,7.40
2019-05-07T19:26:57.007Z,9.17
2019-05-07T19:29:24.549Z,7.53
2019-05-07T19:31:52.611Z,7.57
2019-05-07T19:34:21.818Z,7.32
2019-05-07T19:36:47.864Z,7.30
2019-05-07T19:39:15.309Z,7.27
2019-05-07T19:41:43.087Z,8.90
2019-05-07T19:44:12.546Z,7.03
2019-05-07T19:46:37.734Z,6.93
2019-05-07T19:49:07.142Z,8.67
2019-05-07T19:51:32.615Z,7.90
2019-05-07T19:54:02.026Z,9.80
2019-05-07T19:56:28.277Z,6.65
2019-05-07T19:58:55.756Z,7.43
2019-05-07T20:01:23.970Z,6.73
2019-05-07T20:03:52.884Z,6.45
2019-05-07T20:06:18.908Z,6.37
2019-05-07T20:08:46.341Z,7.53
2019-05-07T20:11:14.395Z,8.20
2019-05-07T20:13:43.755Z,9.50
2019-05-07T20:16:24.124Z,9.60
2019-05-07T20:18:52.538Z,8.50
2019-05-07T20:21:19.811Z,8.07
2019-05-07T20:23:47.540Z,8.23
2019-05-07T20:26:14.979Z,7.82
2019-05-07T20:28:42.495Z,8.32
2019-05-07T20:33:43.736Z,7.30
2019-05-07T20:36:11.198Z,8.40
2019-05-07T20:38:38.631Z,9.70
2019-05-07T20:41:06.118Z,6.50
2019-05-07T20:43:33.585Z,7.47
2019-05-07T20:46:02.627Z,6.87
2019-05-07T20:48:28.511Z,7.72
2019-05-07T20:50:56.658Z,7.60
2019-05-07T20:53:29.915Z,7.60
2019-05-07T20:55:58.678Z,7.33
2019-05-07T20:58:27.086Z,7.02
2019-05-07T21:00:54.617Z,7.03
2019-05-07T21:03:23.808Z,8.10
2019-05-07T21:05:52.898Z,7.07
2019-05-07T21:08:19.835Z,7.83
2019-05-07T21:10:47.553Z,7.83
2019-05-07T21:13:27.443Z,7.95
2019-05-07T21:15:42.847Z,7.95
2019-05-07T21:18:12.161Z,8.17
2019-05-07T21:20:37.805Z,8.27
2019-05-07T21:23:05.275Z,6.90
2019-05-07T21:25:42.672Z,7.50
2019-05-07T21:28:02.101Z,8.23
2019-05-07T21:30:27.861Z,7.25
2019-05-07T21:32:55.569Z,7.50
2019-05-07T21:35:23.040Z,9.63
2019-05-07T21:37:52.413Z,7.50
2019-05-07T21:40:18.537Z,7.15
2019-05-07T21:42:45.973Z,7.23
2019-05-07T21:45:13.826Z,6.90
2019-05-07T21:47:41.364Z,7.17
2019-05-07T21:50:08.787Z,7.28
2019-05-07T21:52:39.360Z,6.87
2019-05-07T21:55:07.619Z,7.40
2019-05-07T21:57:40.572Z,6.40
2019-05-07T22:00:23.692Z,6.00
2019-05-07T22:02:52.566Z,6.63
2019-05-07T22:05:18.615Z,7.70
2019-05-07T22:07:46.069Z,7.43
2019-05-07T22:10:13.507Z,6.90
2019-05-07T22:12:40.958Z,7.10
2019-05-07T22:15:08.393Z,7.00
2019-05-07T22:17:35.830Z,6.83
2019-05-07T22:20:03.280Z,6.87
2019-05-07T22:22:32.056Z,6.35
2019-05-07T22:24:58.630Z,7.43
2019-05-07T22:27:26.069Z,7.27
2019-05-07T22:29:53.532Z,6.20
2019-05-07T22:32:37.046Z,7.50
2019-05-07T22:35:14.478Z,6.50
2019-05-07T22:37:41.899Z,11.03
2019-05-07T22:40:09.374Z,6.77
2019-05-07T22:42:36.815Z,6.85
2019-05-07T22:45:04.274Z,6.77
2019-05-07T22:47:32.600Z,6.50
2019-05-07T22:49:59.198Z,7.70
2019-05-07T22:52:26.649Z,6.30
2019-05-07T22:54:54.118Z,6.20
2019-05-07T22:57:24.969Z,5.93
2019-05-07T22:59:52.412Z,5.73
2019-05-07T23:02:22.641Z,5.87
2019-05-07T23:04:47.859Z,5.53
2019-05-07T23:07:15.327Z,5.80
2019-05-07T23:09:44.928Z,4.97
2019-05-07T23:12:12.326Z,5.47
2019-05-07T23:14:37.716Z,5.20
2019-05-07T23:17:05.170Z,6.87
2019-05-07T23:19:32.822Z,5.40
2019-05-07T23:22:00.131Z,4.93
2019-05-07T23:24:27.599Z,5.03
2019-05-07T23:26:55.034Z,5.60
2019-05-07T23:29:22.824Z,4.63
2019-05-07T23:31:49.990Z,4.83
2019-05-07T23:34:17.465Z,4.63
2019-05-07T23:36:44.889Z,4.57
2019-05-07T23:39:12.350Z,4.20
2019-05-07T23:41:42.625Z,5.17
2019-05-07T23:44:12.210Z,6.37
2019-05-07T23:46:37.508Z,4.77
2019-05-07T23:49:04.975Z,4.90
2019-05-07T23:51:32.392Z,4.70
2019-05-07T23:54:02.705Z,5.40
2019-05-07T23:56:27.844Z,4.97
2019-05-07T23:58:55.305Z,5.03
